Time;durP1;ratioP1;P1;durP2;ratioP2;P2;SDS_P1;SDS_P2;PMS_P1;PMS_P2;Temp;Humidity;BMP_temperature;BMP_pressure;BME280_temperature;BME280_humidity;BME280_pressure;Samples;Min_cycle;Max_cycle;Signal;HPM_P1;HPM_P2
2023/01/16 00:04:53;;;;;;;1.40;1.30;;;2.10;90.90;;;;;;5042784;28;20206;-92
2023/01/16 00:10:21;;;;;;;2.20;1.50;;;2.10;91.40;;;;;;5084397;23;20242;-92
2023/01/16 00:12:48;;;;;;;1.47;1.37;;;2.10;91.40;;;;;;5069713;28;20205;-93
2023/01/16 00:15:15;;;;;;;1.20;1.10;;;2.10;91.00;;;;;;5074856;28;20186;-93
2023/01/16 00:20:29;;;;;;;1.30;1.20;;;2.10;91.30;;;;;;5065423;28;20216;-91
2023/01/16 00:22:56;;;;;;;1.67;1.10;;;2.10;91.00;;;;;;5062052;28;20224;-92
2023/01/16 00:25:23;;;;;;;1.30;1.20;;;2.10;91.30;;;;;;5062918;28;20218;-92
2023/01/16 00:27:49;;;;;;;1.30;1.20;;;2.20;90.60;;;;;;5059126;28;20209;-92
2023/01/16 00:30:17;;;;;;;1.47;1.00;;;2.20;90.80;;;;;;5063710;28;20237;-92
2023/01/16 00:35:26;;;;;;;1.37;1.20;;;2.10;90.90;;;;;;5115714;23;20256;-93
2023/01/16 00:40:34;;;;;;;1.43;1.10;;;2.00;91.40;;;;;;5055650;28;20197;-94
2023/01/16 00:43:01;;;;;;;6.30;4.33;;;2.00;91.80;;;;;;5052151;28;20249;-92
2023/01/16 00:50:51;;;;;;;6.47;4.63;;;2.20;92.60;;;;;;5052999;28;20210;-93
2023/01/16 00:53:19;;;;;;;6.53;4.40;;;2.20;92.30;;;;;;5071002;28;20239;-92
2023/01/16 00:55:46;;;;;;;3.50;2.20;;;2.30;91.80;;;;;;5065017;28;20202;-92
2023/01/16 01:00:53;;;;;;;5.53;3.47;;;2.20;91.80;;;;;;5034313;28;20194;-93
2023/01/16 01:06:06;;;;;;;7.00;4.87;;;2.20;92.60;;;;;;5053761;28;20190;-93
2023/01/16 01:08:33;;;;;;;6.30;4.07;;;2.20;92.50;;;;;;5048928;28;20205;-94
2023/01/16 01:16:29;;;;;;;5.27;3.80;;;2.10;92.60;;;;;;5058242;28;20217;-93
2023/01/16 01:18:57;;;;;;;1.33;0.90;;;2.20;92.90;;;;;;5066097;28;20194;-93
2023/01/16 01:21:24;;;;;;;5.03;3.43;;;2.10;92.00;;;;;;5064946;28;20194;-93
2023/01/16 01:23:51;;;;;;;6.73;5.30;;;2.10;92.40;;;;;;5072482;28;20287;-93
2023/01/16 01:28:59;;;;;;;5.33;3.93;;;2.20;92.50;;;;;;5043930;28;20208;-93
2023/01/16 01:31:26;;;;;;;3.27;1.50;;;2.20;93.10;;;;;;5072518;28;20205;-94
2023/01/16 01:39:15;;;;;;;1.50;1.40;;;2.10;91.60;;;;;;5045301;28;20198;-93
2023/01/16 01:41:42;;;;;;;1.40;1.10;;;2.10;91.80;;;;;;5078764;28;20262;-94
2023/01/16 01:44:47;;;;;;;4.90;3.20;;;2.10;92.30;;;;;;5084433;28;20224;-94
2023/01/16 01:49:57;;;;;;;1.57;1.00;;;2.20;91.90;;;;;;5055208;28;20254;-93
2023/01/16 01:55:29;;;;;;;1.30;1.07;;;2.00;91.30;;;;;;5067059;28;20188;-93
2023/01/16 02:03:26;;;;;;;2.13;1.37;;;2.20;91.50;;;;;;5040955;28;20222;-93
2023/01/16 02:11:50;;;;;;;2.50;1.73;;;2.50;89.30;;;;;;5038010;28;20200;-93
2023/01/16 02:14:18;;;;;;;2.67;1.37;;;2.50;89.10;;;;;;5072926;28;20202;-93
2023/01/16 02:29:41;;;;;;;1.93;1.73;;;2.00;91.80;;;;;;5065530;28;20272;-93
2023/01/16 03:03:51;;;;;;;1.60;1.10;;;1.70;92.40;;;;;;5042538;28;20234;-93
2023/01/16 03:18:07;;;;;;;3.33;1.70;;;1.60;92.80;;;;;;5031269;28;20265;-92
2023/01/16 03:32:18;;;;;;;1.00;1.00;;;1.70;93.00;;;;;;5040270;28;20217;-93
2023/01/16 03:34:51;;;;;;;1.20;1.10;;;1.80;92.80;;;;;;5078194;28;20320;-93
2023/01/16 04:19:24;;;;;;;1.43;1.30;;;1.60;92.20;;;;;;5056735;28;20263;-92
2023/01/16 04:21:51;;;;;;;1.57;1.17;;;1.50;92.40;;;;;;5068669;28;20203;-92
2023/01/16 04:26:58;;;;;;;3.07;1.40;;;1.50;93.00;;;;;;5045402;28;20209;-93
2023/01/16 04:29:26;;;;;;;1.37;1.10;;;1.50;92.90;;;;;;5070607;28;20379;-93
2023/01/16 04:34:59;;;;;;;1.37;1.27;;;1.30;93.50;;;;;;5071713;28;20270;-93
2023/01/16 04:37:26;;;;;;;1.40;1.10;;;1.30;93.40;;;;;;5074138;28;20285;-92
2023/01/16 04:42:34;;;;;;;1.40;1.30;;;1.30;93.80;;;;;;5057678;28;20239;-93
2023/01/16 04:50:27;;;;;;;1.00;1.00;;;1.30;94.30;;;;;;5048596;28;20201;-92
2023/01/16 04:52:54;;;;;;;1.67;1.30;;;1.20;94.30;;;;;;5070434;28;20212;-93
2023/01/16 04:55:21;;;;;;;1.07;0.97;;;1.20;94.30;;;;;;5070386;28;20210;-93
2023/01/16 04:57:48;;;;;;;2.33;1.20;;;1.20;94.30;;;;;;5065847;28;20191;-93
2023/01/16 05:02:58;;;;;;;1.77;1.43;;;1.00;94.80;;;;;;5045563;28;20201;-91
2023/01/16 05:05:25;;;;;;;1.80;1.70;;;0.90;94.80;;;;;;5077404;28;20232;-90
2023/01/16 05:10:32;;;;;;;2.07;1.30;;;0.80;95.50;;;;;;5063290;28;20217;-90
2023/01/16 05:18:31;;;;;;;1.77;1.30;;;1.10;95.10;;;;;;5063350;28;20201;-90
2023/01/16 05:20:59;;;;;;;1.30;1.20;;;0.90;95.00;;;;;;5056518;28;20217;-90
2023/01/16 05:23:26;;;;;;;1.67;1.10;;;0.90;95.20;;;;;;5059748;28;20221;-89
2023/01/16 05:25:53;;;;;;;1.53;1.43;;;0.80;95.30;;;;;;5055798;28;20202;-90
2023/01/16 05:31:03;;;;;;;1.10;0.97;;;0.80;95.80;;;;;;5052492;28;20212;-92
2023/01/16 05:33:32;;;;;;;1.67;1.30;;;0.80;95.60;;;;;;5048014;28;20202;-89
2023/01/16 05:40:01;;;;;;;1.30;1.20;;;0.70;95.60;;;;;;5004926;28;20233;-92
2023/01/16 05:42:28;;;;;;;1.40;1.30;;;0.70;95.80;;;;;;5030041;28;20275;-92
2023/01/16 05:45:15;;;;;;;1.57;1.20;;;0.60;96.00;;;;;;5004486;28;20230;-90
2023/01/16 05:47:44;;;;;;;1.30;1.20;;;0.50;96.00;;;;;;5010149;28;20214;-89
2023/01/16 05:50:11;;;;;;;1.20;1.10;;;0.60;96.50;;;;;;5013067;28;20203;-89
2023/01/16 05:55:18;;;;;;;0.90;0.90;;;0.60;96.10;;;;;;5005607;28;20206;-90
2023/01/16 05:57:45;;;;;;;1.90;1.20;;;0.60;96.20;;;;;;5008015;28;20290;-90
2023/01/16 06:00:13;;;;;;;1.40;1.03;;;0.50;96.30;;;;;;5014730;28;20674;-90
2023/01/16 06:02:40;;;;;;;1.03;0.93;;;0.60;95.90;;;;;;5011817;28;20218;-91
2023/01/16 06:05:10;;;;;;;1.20;1.00;;;0.70;96.10;;;;;;5028482;28;20226;-89
2023/01/16 06:07:37;;;;;;;1.40;1.30;;;0.60;95.90;;;;;;5011846;28;20211;-87
2023/01/16 06:10:07;;;;;;;1.43;1.33;;;0.60;96.10;;;;;;5009040;28;20213;-87
2023/01/16 06:12:34;;;;;;;1.80;1.03;;;0.70;96.30;;;;;;5009666;28;20647;-89
2023/01/16 06:15:02;;;;;;;1.57;1.13;;;0.60;96.10;;;;;;5015897;28;20203;-88
2023/01/16 06:17:28;;;;;;;1.80;1.33;;;0.50;96.10;;;;;;5009115;28;20202;-84
2023/01/16 06:19:56;;;;;;;1.67;1.57;;;0.60;96.60;;;;;;5014378;28;20210;-86
2023/01/16 06:22:26;;;;;;;1.70;1.50;;;0.70;96.50;;;;;;5018012;28;20226;-87
2023/01/16 06:24:52;;;;;;;1.33;1.20;;;0.70;96.70;;;;;;5018035;28;20545;-86
2023/01/16 06:27:19;;;;;;;1.93;1.67;;;0.70;95.90;;;;;;5020550;28;20647;-84
2023/01/16 06:29:46;;;;;;;1.97;1.60;;;0.80;95.90;;;;;;5002257;28;20214;-85
2023/01/16 06:32:13;;;;;;;1.57;1.43;;;0.80;96.10;;;;;;5009754;28;20204;-91
2023/01/16 06:34:41;;;;;;;2.10;1.70;;;0.70;96.00;;;;;;5013568;28;20230;-89
2023/01/16 06:43:37;;;;;;;2.67;1.70;;;0.80;95.50;;;;;;5030268;28;20209;-89
2023/01/16 06:46:04;;;;;;;2.83;1.70;;;0.80;95.80;;;;;;5037242;28;20221;-89
2023/01/16 06:48:31;;;;;;;2.27;1.80;;;0.80;95.90;;;;;;5048791;28;20316;-91
2023/01/16 06:50:59;;;;;;;3.97;2.47;;;0.80;96.10;;;;;;5087072;23;20277;-90
2023/01/16 07:01:30;;;;;;;3.67;2.70;;;0.70;97.00;;;;;;5021330;28;20256;-90
2023/01/16 07:03:56;;;;;;;3.87;3.13;;;0.80;97.10;;;;;;5024612;28;20285;-89
2023/01/16 07:06:23;;;;;;;5.53;4.00;;;0.80;96.80;;;;;;5030230;28;20202;-89
2023/01/16 07:08:52;;;;;;;5.63;3.73;;;0.90;96.80;;;;;;5037505;28;20194;-87
2023/01/16 07:11:24;;;;;;;6.53;4.20;;;0.90;96.70;;;;;;5028507;28;20195;-87
2023/01/16 07:22:33;;;;;;;5.63;3.23;;;0.90;96.80;;;;;;5024946;28;20209;-87
2023/01/16 07:24:50;;;;;;;6.80;3.77;;;1.10;96.70;;;;;;5013099;28;20214;-87
2023/01/16 07:27:18;;;;;;;5.30;3.67;;;1.00;95.80;;;;;;5014052;28;20644;-88
2023/01/16 07:29:45;;;;;;;4.13;2.97;;;1.00;95.60;;;;;;5006612;28;20722;-88
2023/01/16 07:32:12;;;;;;;5.23;3.87;;;1.20;95.50;;;;;;5009171;28;20199;-87
2023/01/16 07:34:39;;;;;;;3.07;1.87;;;1.10;95.90;;;;;;5005099;28;20199;-87
2023/01/16 07:37:07;;;;;;;4.37;2.73;;;1.20;95.70;;;;;;5015538;28;20202;-88
2023/01/16 07:39:34;;;;;;;4.93;2.80;;;1.20;95.40;;;;;;5011207;28;20202;-87
2023/01/16 07:42:04;;;;;;;4.97;2.77;;;1.20;95.60;;;;;;5015424;28;20205;-87
2023/01/16 07:44:32;;;;;;;3.10;2.20;;;1.20;95.60;;;;;;5007705;28;20218;-87
2023/01/16 07:46:59;;;;;;;3.93;2.60;;;1.30;95.40;;;;;;5014127;28;20216;-87
2023/01/16 07:49:26;;;;;;;2.20;1.93;;;1.40;95.00;;;;;;5014508;28;20209;-88
2023/01/16 07:51:53;;;;;;;5.83;1.97;;;1.50;94.80;;;;;;5019403;28;20576;-88
2023/01/16 07:54:21;;;;;;;2.67;1.70;;;1.60;94.40;;;;;;5017480;28;20214;-89
2023/01/16 07:56:48;;;;;;;3.10;2.10;;;1.60;94.40;;;;;;5012872;28;20257;-88
2023/01/16 07:59:14;;;;;;;1.97;1.57;;;1.60;94.00;;;;;;5013678;28;20206;-89
2023/01/16 08:01:45;;;;;;;1.80;1.43;;;1.70;93.90;;;;;;5006927;28;20218;-89
2023/01/16 08:04:12;;;;;;;3.77;1.40;;;1.70;93.50;;;;;;5014407;28;20258;-89
2023/01/16 08:06:42;;;;;;;3.67;2.17;;;1.80;93.00;;;;;;5010608;28;20563;-88
2023/01/16 08:09:10;;;;;;;3.80;1.30;;;1.90;93.30;;;;;;5008009;28;20725;-89
2023/01/16 08:11:38;;;;;;;2.50;1.60;;;2.00;92.40;;;;;;5011427;28;20209;-89
2023/01/16 08:14:06;;;;;;;2.90;1.93;;;2.30;92.00;;;;;;5015176;28;20199;-88
2023/01/16 08:16:33;;;;;;;1.70;1.50;;;2.50;91.30;;;;;;5015179;28;20199;-89
2023/01/16 08:19:01;;;;;;;2.80;1.40;;;2.50;91.20;;;;;;5013865;28;20203;-89
2023/01/16 08:21:28;;;;;;;4.17;2.00;;;2.60;90.70;;;;;;5010421;28;20202;-89
2023/01/16 08:23:55;;;;;;;3.10;2.13;;;2.60;90.60;;;;;;5015169;28;20368;-89
2023/01/16 08:26:22;;;;;;;2.27;1.70;;;2.60;90.40;;;;;;5014756;28;20222;-88
2023/01/16 08:28:48;;;;;;;2.10;1.70;;;2.70;89.50;;;;;;5023253;28;20238;-89
2023/01/16 08:31:17;;;;;;;4.10;1.80;;;2.70;89.30;;;;;;5008981;28;20207;-89
2023/01/16 08:33:45;;;;;;;2.73;1.80;;;2.60;90.30;;;;;;5013440;28;20995;-89
2023/01/16 08:36:15;;;;;;;2.60;1.60;;;2.60;90.30;;;;;;5020414;28;20214;-89
2023/01/16 08:38:42;;;;;;;3.13;2.03;;;2.70;90.30;;;;;;5017255;28;20315;-88
2023/01/16 08:51:21;;;;;;;2.23;1.73;;;2.60;90.00;;;;;;5016835;28;20215;-89
2023/01/16 08:52:24;;;;;;;2.00;1.80;;;3.10;89.60;;;;;;5008778;28;20774;-90
2023/01/16 08:54:50;;;;;;;2.23;1.90;;;3.60;87.00;;;;;;5011884;28;20211;-89
2023/01/16 08:57:17;;;;;;;4.47;1.90;;;4.00;82.60;;;;;;5020342;28;20211;-90
2023/01/16 08:59:44;;;;;;;2.77;2.10;;;4.20;80.80;;;;;;5012058;28;20668;-90
2023/01/16 09:04:54;;;;;;;2.43;1.90;;;4.60;77.20;;;;;;5012945;28;20231;-87
2023/01/16 09:07:23;;;;;;;2.17;1.87;;;4.80;76.00;;;;;;5012267;28;20243;-90
2023/01/16 09:09:50;;;;;;;2.43;1.70;;;5.30;70.00;;;;;;5012343;28;20656;-90
2023/01/16 09:17:45;;;;;;;2.47;2.03;;;6.70;55.30;;;;;;5000702;28;20198;-90
2023/01/16 10:01:40;;;;;;;2.65;1.58;;;7.30;33.00;;;;;;4880620;29;20294;-89
2023/01/16 10:04:17;;;;;;;1.50;1.40;;;7.30;34.10;;;;;;4860518;29;20816;-89
2023/01/16 10:12:31;;;;;;;3.90;1.83;;;6.50;38.50;;;;;;4874860;29;20308;-89
2023/01/16 10:18:05;;;;;;;1.63;1.52;;;6.20;45.30;;;;;;4873447;29;20218;-88
2023/01/16 10:20:50;;;;;;;2.25;1.70;;;6.20;43.50;;;;;;4878245;29;20616;-88
2023/01/16 10:23:49;;;;;;;3.55;1.60;;;6.20;43.60;;;;;;4877000;29;20243;-90
2023/01/16 10:26:22;;;;;;;2.27;1.50;;;5.90;43.00;;;;;;4882300;29;20595;-88
2023/01/16 10:28:58;;;;;;;2.60;1.90;;;5.60;46.00;;;;;;4936784;28;20197;-88
2023/01/16 10:31:29;;;;;;;1.20;1.10;;;5.70;44.80;;;;;;4968734;28;20215;-88
2023/01/16 10:34:00;;;;;;;1.30;1.20;;;5.90;45.00;;;;;;4969191;28;20551;-89
2023/01/16 10:36:40;;;;;;;3.43;1.53;;;6.00;45.10;;;;;;4967671;28;20201;-89
2023/01/16 10:39:32;;;;;;;3.13;1.40;;;6.50;43.10;;;;;;4970461;28;20287;-90
2023/01/16 10:50:30;;;;;;;1.80;1.40;;;7.20;34.10;;;;;;4977497;28;20320;-89
2023/01/16 10:52:57;;;;;;;2.15;1.40;;;6.60;36.70;;;;;;4983851;28;20234;-91
2023/01/16 10:58:30;;;;;;;3.17;1.40;;;7.50;34.10;;;;;;5013251;28;20206;-89
2023/01/16 11:01:01;;;;;;;1.35;1.20;;;7.40;33.30;;;;;;5016121;28;20200;-89
2023/01/16 11:06:20;;;;;;;1.85;1.48;;;6.60;35.60;;;;;;5009582;28;20309;-90
2023/01/16 11:25:58;;;;;;;1.95;1.27;;;7.40;32.90;;;;;;4999956;28;20246;-90
2023/01/16 11:34:01;;;;;;;1.20;1.10;;;6.90;35.90;;;;;;5005138;28;20219;-91
2023/01/16 11:36:31;;;;;;;1.50;1.20;;;6.90;35.10;;;;;;5008256;28;20667;-90
2023/01/16 11:38:59;;;;;;;2.50;1.40;;;6.90;37.20;;;;;;5006136;28;20198;-90
2023/01/16 11:41:33;;;;;;;2.92;1.02;;;6.70;36.70;;;;;;5004267;28;20213;-90
2023/01/16 11:47:10;;;;;;;1.87;1.40;;;6.20;38.50;;;;;;5006147;28;20242;-91
2023/01/16 11:49:40;;;;;;;2.23;1.23;;;6.20;38.20;;;;;;5010219;28;20302;-89
2023/01/16 11:52:11;;;;;;;1.13;1.00;;;6.20;39.60;;;;;;5015345;28;21339;-88
2023/01/16 11:54:38;;;;;;;4.70;1.37;;;6.20;40.90;;;;;;5013026;28;20235;-89
2023/01/16 11:57:36;;;;;;;3.23;1.30;;;6.30;39.60;;;;;;5008410;28;20271;-90
2023/01/16 12:00:37;;;;;;;1.57;1.43;;;6.40;39.90;;;;;;5005033;28;20210;-90
2023/01/16 12:03:23;;;;;;;4.53;1.53;;;6.40;39.30;;;;;;5004123;28;20213;-89
2023/01/16 12:06:00;;;;;;;1.30;1.00;;;6.10;40.10;;;;;;5011272;28;20223;-89
2023/01/16 12:08:51;;;;;;;3.20;1.10;;;6.20;40.10;;;;;;5003597;28;20636;-89
2023/01/16 12:11:29;;;;;;;1.40;1.30;;;6.10;40.60;;;;;;5010086;28;20285;-89
2023/01/16 12:14:20;;;;;;;1.90;1.27;;;6.20;42.00;;;;;;5005474;28;20615;-90
2023/01/16 12:17:05;;;;;;;2.97;1.33;;;6.30;41.20;;;;;;5005772;28;20297;-89
2023/01/16 12:20:05;;;;;;;2.63;1.57;;;6.40;41.30;;;;;;5007369;28;20202;-89
2023/01/16 12:22:46;;;;;;;1.43;1.33;;;6.20;41.20;;;;;;5002952;28;20251;-88
2023/01/16 12:25:25;;;;;;;1.60;1.50;;;6.20;40.70;;;;;;4999605;28;20203;-89
2023/01/16 12:28:18;;;;;;;1.60;1.40;;;6.10;40.40;;;;;;5009969;28;20195;-90
2023/01/16 12:37:06;;;;;;;1.10;1.00;;;6.80;37.90;;;;;;5042490;28;20197;-94
2023/01/16 12:45:35;;;;;;;1.80;1.40;;;6.90;34.60;;;;;;5005142;28;20632;-86
2023/01/16 12:48:15;;;;;;;3.05;1.33;;;6.70;35.60;;;;;;5011561;28;20197;-92
2023/01/16 12:54:06;;;;;;;1.70;1.42;;;6.80;37.80;;;;;;4984264;28;20354;-89
2023/01/16 12:56:43;;;;;;;2.35;1.38;;;6.60;36.10;;;;;;5010865;28;20198;-91
2023/01/16 12:59:17;;;;;;;1.60;1.33;;;6.70;38.30;;;;;;4998438;28;20206;-90
2023/01/16 13:04:33;;;;;;;1.45;1.30;;;7.10;38.50;;;;;;5007008;28;20656;-91
2023/01/16 13:16:47;;;;;;;1.67;1.52;;;7.10;41.70;;;;;;4997688;28;20198;-90
2023/01/16 13:19:18;;;;;;;2.35;1.23;;;7.00;46.00;;;;;;5025820;28;20207;-93
2023/01/16 13:34:32;;;;;;;3.05;1.25;;;6.70;45.70;;;;;;5069094;28;20201;-90
2023/01/16 13:37:50;;;;;;;2.65;1.30;;;6.80;45.70;;;;;;5097297;28;20712;-91
2023/01/16 13:56:28;;;;;;;1.65;1.50;;;7.00;48.20;;;;;;5056042;28;20338;-93
2023/01/16 15:03:56;;;;;;;3.80;2.40;;;6.50;34.60;;;;;;5056896;28;20669;-93
2023/01/16 15:35:07;;;;;;;1.13;1.02;;;5.80;33.30;;;;;;5085793;28;20207;-94
2023/01/16 15:40:36;;;;;;;3.27;1.40;;;5.60;32.50;;;;;;5078221;28;20187;-95
2023/01/16 15:51:23;;;;;;;3.43;1.50;;;5.70;30.30;;;;;;5374028;22;20232;-95
2023/01/16 15:59:30;;;;;;;2.37;1.60;;;5.40;34.30;;;;;;5055477;28;20204;-93
2023/01/16 16:02:16;;;;;;;3.80;1.50;;;5.30;34.30;;;;;;5071789;28;20196;-94
2023/01/16 16:04:43;;;;;;;1.60;1.40;;;5.20;34.40;;;;;;5068064;28;20197;-91
2023/01/16 16:07:28;;;;;;;3.03;1.60;;;5.20;35.30;;;;;;5073915;28;20213;-95
2023/01/16 16:09:59;;;;;;;3.67;1.87;;;5.10;35.50;;;;;;5071474;28;20198;-91
2023/01/16 16:12:26;;;;;;;3.33;1.83;;;5.10;36.90;;;;;;5076104;28;20262;-92
2023/01/16 16:18:03;;;;;;;3.83;1.50;;;5.00;36.10;;;;;;5066985;28;20199;-93
2023/01/16 16:20:33;;;;;;;2.03;1.60;;;4.90;36.60;;;;;;5076182;28;20216;-95
2023/01/16 16:23:06;;;;;;;3.50;1.60;;;4.90;40.20;;;;;;5089556;28;20273;-94
2023/01/16 16:25:37;;;;;;;2.70;1.97;;;4.90;37.60;;;;;;5104834;28;20193;-89
2023/01/16 16:28:06;;;;;;;7.10;2.13;;;5.00;37.60;;;;;;5090635;28;20200;-91
2023/01/16 16:30:35;;;;;;;2.80;1.80;;;5.10;38.60;;;;;;5092795;28;20208;-92
2023/01/16 16:33:02;;;;;;;7.60;2.00;;;5.00;38.00;;;;;;5089529;28;20553;-91
2023/01/16 16:35:33;;;;;;;6.07;2.07;;;4.90;39.20;;;;;;5084116;28;20205;-92
2023/01/16 16:38:01;;;;;;;4.70;2.03;;;4.90;39.50;;;;;;5075430;28;20287;-89
2023/01/16 16:40:30;;;;;;;2.50;1.93;;;4.70;41.00;;;;;;5082128;28;20204;-94
2023/01/16 16:42:59;;;;;;;3.10;2.20;;;4.70;42.10;;;;;;5080290;28;20194;-89
2023/01/16 16:45:33;;;;;;;2.97;2.53;;;4.70;41.60;;;;;;5085345;28;20652;-89
2023/01/16 16:48:32;;;;;;;3.03;2.30;;;4.80;40.90;;;;;;5082000;28;20228;-89
2023/01/16 16:51:20;;;;;;;7.97;2.30;;;4.80;39.70;;;;;;5081882;28;20200;-88
2023/01/16 16:53:49;;;;;;;5.47;2.83;;;4.70;43.50;;;;;;5082887;28;20660;-88
2023/01/16 16:56:23;;;;;;;3.67;2.50;;;4.70;42.10;;;;;;5083710;28;21961;-87
2023/01/16 16:58:51;;;;;;;5.03;2.23;;;4.60;42.40;;;;;;5079905;28;20197;-87
2023/01/16 17:01:20;;;;;;;4.07;2.30;;;4.50;43.90;;;;;;5085795;28;20257;-89
2023/01/16 17:03:49;;;;;;;5.00;2.30;;;4.50;43.90;;;;;;5084722;28;20754;-87
2023/01/16 17:06:19;;;;;;;7.03;4.57;;;4.40;43.80;;;;;;5087247;28;20235;-87
2023/01/16 17:08:46;;;;;;;4.50;2.93;;;4.30;43.80;;;;;;5086137;28;20192;-87
2023/01/16 17:11:14;;;;;;;4.37;2.90;;;4.40;45.90;;;;;;5085639;28;20648;-87
2023/01/16 17:13:42;;;;;;;8.27;2.87;;;4.40;46.50;;;;;;5087569;28;20204;-87
2023/01/16 17:16:21;;;;;;;6.20;2.87;;;4.30;47.70;;;;;;5085890;28;20200;-90
2023/01/16 17:18:50;;;;;;;5.77;2.90;;;4.30;48.70;;;;;;5083183;28;20245;-89
2023/01/16 17:21:18;;;;;;;5.63;2.50;;;4.30;46.50;;;;;;5087798;28;20278;-89
2023/01/16 17:23:45;;;;;;;5.70;2.70;;;4.40;47.20;;;;;;5085755;28;20232;-90
2023/01/16 17:26:15;;;;;;;4.20;2.67;;;4.40;46.60;;;;;;5088939;28;20267;-88
2023/01/16 17:28:43;;;;;;;6.23;2.80;;;4.40;43.90;;;;;;5088892;28;20200;-88
2023/01/16 17:31:13;;;;;;;6.03;2.60;;;4.50;43.90;;;;;;5086966;28;20204;-88
2023/01/16 17:33:40;;;;;;;5.80;2.70;;;4.50;45.70;;;;;;5086809;28;20227;-87
2023/01/16 17:36:11;;;;;;;6.57;4.00;;;4.50;43.90;;;;;;5083176;28;20376;-90
2023/01/16 17:38:40;;;;;;;6.97;2.87;;;4.60;43.90;;;;;;5090481;28;20621;-88
2023/01/16 17:41:14;;;;;;;5.37;2.97;;;4.60;44.00;;;;;;5087204;28;20271;-89
2023/01/16 17:46:25;;;;;;;5.97;4.40;;;4.50;43.90;;;;;;5067940;28;20238;-90
2023/01/16 17:48:52;;;;;;;5.53;2.87;;;4.50;43.90;;;;;;5082745;28;20197;-86
2023/01/16 17:51:23;;;;;;;7.37;2.77;;;4.60;43.90;;;;;;5071242;28;20199;-87
2023/01/16 17:53:50;;;;;;;3.67;2.70;;;4.50;43.90;;;;;;5068756;28;20253;-88
2023/01/16 17:56:18;;;;;;;5.17;3.10;;;4.40;45.40;;;;;;5086899;28;20217;-87
2023/01/16 17:59:03;;;;;;;4.87;3.00;;;4.30;47.70;;;;;;5088498;28;20217;-89
2023/01/16 18:01:35;;;;;;;8.43;4.97;;;4.30;46.60;;;;;;5093591;28;20701;-88
2023/01/16 18:04:03;;;;;;;7.57;4.87;;;4.30;45.30;;;;;;5089789;28;20284;-89
2023/01/16 18:06:33;;;;;;;9.60;4.77;;;4.30;45.50;;;;;;5087818;28;20758;-89
2023/01/16 18:09:01;;;;;;;6.33;3.80;;;4.30;43.80;;;;;;5087567;28;20200;-89
2023/01/16 18:19:43;;;;;;;7.77;4.30;;;3.80;48.60;;;;;;5098407;28;20208;-87
2023/01/16 18:22:10;;;;;;;9.47;4.43;;;3.60;50.80;;;;;;5096015;28;20200;-86
2023/01/16 18:24:47;;;;;;;13.43;5.03;;;3.50;53.00;;;;;;5090700;28;20291;-88
2023/01/16 18:27:16;;;;;;;10.23;5.73;;;3.40;52.60;;;;;;5070281;28;20228;-90
2023/01/16 18:29:44;;;;;;;7.47;4.80;;;3.40;54.30;;;;;;5090217;28;20211;-91
2023/01/16 18:32:25;;;;;;;7.93;4.93;;;3.60;53.00;;;;;;5101559;28;20256;-92
2023/01/16 18:34:54;;;;;;;8.47;5.27;;;3.70;50.60;;;;;;5093716;28;20185;-92
2023/01/16 18:37:22;;;;;;;11.60;5.60;;;3.60;52.90;;;;;;5092208;28;20193;-91
2023/01/16 19:08:23;;;;;;;6.60;4.07;;;3.90;55.40;;;;;;5098983;28;20204;-92
2023/01/16 19:10:50;;;;;;;8.10;5.17;;;4.10;53.30;;;;;;5103618;28;20272;-92
2023/01/16 19:13:18;;;;;;;8.37;4.30;;;4.20;51.30;;;;;;5093351;28;20223;-92
2023/01/16 19:18:25;;;;;;;5.83;3.50;;;4.40;47.60;;;;;;5096311;28;20196;-92
2023/01/16 19:26:22;;;;;;;4.00;2.70;;;4.20;49.00;;;;;;5092707;28;20228;-90
2023/01/16 19:28:50;;;;;;;5.40;2.53;;;4.10;49.00;;;;;;5089191;28;20199;-91
2023/01/16 19:31:17;;;;;;;3.80;2.87;;;4.20;47.50;;;;;;5085221;28;20197;-90
2023/01/16 19:33:44;;;;;;;2.43;2.00;;;4.20;46.10;;;;;;5082635;28;20238;-91
2023/01/16 19:36:12;;;;;;;2.70;2.00;;;4.30;43.70;;;;;;5082121;28;20626;-90
2023/01/16 19:38:39;;;;;;;4.13;1.80;;;4.40;45.10;;;;;;5078831;28;20201;-91
2023/01/16 19:46:41;;;;;;;2.00;1.57;;;4.50;46.30;;;;;;5081427;28;22495;-92
2023/01/16 19:46:42;;;;;;;2.20;1.27;;;4.90;50.00;;;;;;5077318;28;20732;-91
2023/01/16 19:49:09;;;;;;;5.30;1.30;;;5.00;52.30;;;;;;5084550;28;20203;-91
2023/01/16 19:51:38;;;;;;;3.50;1.20;;;5.10;63.50;;;;;;5085331;28;20283;-89
2023/01/16 19:54:05;;;;;;;1.30;0.97;;;5.10;76.30;;;;;;5086338;28;20200;-90
2023/01/16 19:56:32;;;;;;;1.50;1.20;;;4.80;88.10;;;;;;5083161;28;20204;-89
2023/01/16 19:58:59;;;;;;;1.83;1.07;;;4.60;90.20;;;;;;5079529;28;20201;-89
2023/01/16 20:01:26;;;;;;;1.13;0.90;;;4.40;91.40;;;;;;5081992;28;20204;-89
2023/01/16 20:03:53;;;;;;;1.03;1.03;;;4.20;91.30;;;;;;5083866;28;20207;-89
2023/01/16 20:06:21;;;;;;;0.90;0.90;;;4.00;91.40;;;;;;5086675;28;20308;-89
2023/01/16 20:08:49;;;;;;;1.03;0.93;;;3.90;91.50;;;;;;5087166;28;20312;-89
2023/01/16 20:11:16;;;;;;;2.63;0.97;;;3.90;92.00;;;;;;5098472;28;20235;-89
2023/01/16 20:13:43;;;;;;;0.80;0.60;;;3.90;91.80;;;;;;5099354;28;20211;-89
2023/01/16 20:16:10;;;;;;;0.77;0.77;;;3.90;92.10;;;;;;5081176;28;20177;-89
2023/01/16 20:18:37;;;;;;;1.27;0.80;;;3.80;92.10;;;;;;5091608;28;20209;-91
2023/01/16 20:21:09;;;;;;;1.17;1.03;;;3.80;91.80;;;;;;5083618;28;20194;-91
2023/01/16 20:23:36;;;;;;;0.77;0.77;;;3.80;91.70;;;;;;5084204;28;20391;-90
2023/01/16 20:26:08;;;;;;;0.90;0.90;;;3.70;91.60;;;;;;5084609;28;20197;-91
2023/01/16 20:28:36;;;;;;;0.70;0.70;;;3.80;90.90;;;;;;5083948;28;20580;-91
2023/01/16 20:31:03;;;;;;;1.90;1.20;;;3.80;90.90;;;;;;5089184;28;20195;-90
2023/01/16 20:33:30;;;;;;;2.40;1.10;;;3.90;90.10;;;;;;5082844;28;20264;-91
2023/01/16 20:36:02;;;;;;;1.40;0.80;;;4.00;88.40;;;;;;5087932;28;20200;-91
2023/01/16 20:38:29;;;;;;;1.03;1.03;;;3.90;87.70;;;;;;5494315;22;20251;-90
2023/01/16 20:40:56;;;;;;;1.00;1.00;;;3.90;87.80;;;;;;5114722;28;20215;-93
2023/01/16 20:46:10;;;;;;;1.07;0.97;;;4.00;84.50;;;;;;5118283;28;20238;-93
2023/01/16 20:48:37;;;;;;;1.43;0.70;;;4.10;82.80;;;;;;5110122;28;20518;-92
2023/01/16 20:51:08;;;;;;;0.90;0.90;;;4.10;81.10;;;;;;5111076;28;20214;-92
2023/01/16 20:53:54;;;;;;;1.47;0.93;;;4.10;82.10;;;;;;5104686;28;20215;-91
2023/01/16 20:56:21;;;;;;;1.10;0.70;;;4.10;81.60;;;;;;5110461;28;20210;-91
2023/01/16 21:01:31;;;;;;;1.13;1.00;;;4.00;82.10;;;;;;5108575;28;20319;-92
2023/01/16 21:03:57;;;;;;;1.53;1.10;;;3.90;82.00;;;;;;5118663;28;20214;-92
2023/01/16 21:06:25;;;;;;;1.30;1.20;;;3.80;81.50;;;;;;5107745;28;20206;-92
2023/01/16 21:08:52;;;;;;;1.07;1.00;;;4.00;80.50;;;;;;5111591;28;20222;-91
2023/01/16 21:14:12;;;;;;;0.67;0.60;;;3.90;78.40;;;;;;5096515;28;20587;-91
2023/01/16 21:22:09;;;;;;;1.20;1.10;;;3.80;77.80;;;;;;5118253;28;20280;-90
2023/01/16 21:24:38;;;;;;;1.37;1.00;;;3.90;75.80;;;;;;5097805;28;20264;-91
2023/01/16 21:27:05;;;;;;;1.27;1.10;;;3.90;76.40;;;;;;5104025;28;20215;-90
2023/01/16 21:29:36;;;;;;;2.57;1.00;;;3.90;76.00;;;;;;5102491;28;20200;-91
2023/01/16 21:32:09;;;;;;;1.00;1.00;;;3.80;76.00;;;;;;5093540;28;20197;-91
2023/01/16 21:34:36;;;;;;;3.07;1.07;;;3.80;75.80;;;;;;5098893;28;20228;-90
2023/01/16 21:37:04;;;;;;;0.70;0.70;;;3.80;75.80;;;;;;5093338;28;20203;-90
2023/01/16 21:39:31;;;;;;;1.20;1.10;;;3.80;75.90;;;;;;5096766;28;20324;-91
2023/01/16 21:47:30;;;;;;;1.73;1.10;;;3.80;74.40;;;;;;5097114;28;20235;-91
2023/01/16 21:49:57;;;;;;;1.50;0.90;;;3.70;73.40;;;;;;5095153;28;20258;-91
2023/01/16 21:52:24;;;;;;;1.27;1.00;;;3.70;73.40;;;;;;5090438;28;20197;-90
2023/01/16 21:54:52;;;;;;;1.43;1.10;;;3.60;75.30;;;;;;5092242;28;20236;-90
2023/01/16 21:57:19;;;;;;;1.13;0.80;;;3.60;74.20;;;;;;5095748;28;20235;-90
2023/01/16 21:59:47;;;;;;;1.00;1.00;;;3.60;73.40;;;;;;5087883;28;20185;-90
2023/01/16 22:02:14;;;;;;;1.47;0.87;;;3.70;73.20;;;;;;5110336;28;20271;-91
2023/01/16 22:04:41;;;;;;;1.53;1.20;;;3.70;73.70;;;;;;5101586;28;20209;-90
2023/01/16 22:07:08;;;;;;;1.27;0.90;;;3.70;74.40;;;;;;5099964;28;20197;-89
2023/01/16 22:09:35;;;;;;;1.13;1.03;;;3.60;73.90;;;;;;5077328;28;20193;-91
2023/01/16 22:17:42;;;;;;;1.10;1.00;;;3.70;73.50;;;;;;5100288;28;20718;-91
2023/01/16 22:22:51;;;;;;;0.93;0.90;;;3.70;70.40;;;;;;5080657;28;20299;-91
2023/01/16 22:25:20;;;;;;;2.67;1.10;;;3.70;70.70;;;;;;5090309;28;20307;-90
2023/01/16 22:27:47;;;;;;;2.33;1.70;;;3.60;72.00;;;;;;5084358;28;20224;-90
2023/01/16 22:33:04;;;;;;;1.90;1.40;;;3.70;71.30;;;;;;5093514;28;20227;-91
2023/01/16 22:35:31;;;;;;;1.73;0.80;;;3.80;71.00;;;;;;5088593;28;20227;-91
2023/01/16 22:37:58;;;;;;;1.23;1.00;;;3.80;70.10;;;;;;5092475;28;20221;-91
2023/01/16 22:40:25;;;;;;;1.27;1.10;;;3.70;69.60;;;;;;5088954;28;20235;-91
2023/01/16 22:42:53;;;;;;;1.27;1.17;;;3.70;68.40;;;;;;5082789;28;20287;-90
2023/01/16 22:48:26;;;;;;;3.00;1.23;;;3.80;70.70;;;;;;5084943;28;20223;-90
2023/01/16 22:50:53;;;;;;;1.27;1.17;;;3.80;69.60;;;;;;5080317;28;20197;-91
2023/01/16 22:53:20;;;;;;;2.10;1.00;;;3.70;68.40;;;;;;5090084;28;20215;-90
2023/01/16 22:55:53;;;;;;;1.30;1.20;;;3.70;68.50;;;;;;5069269;28;20205;-91
2023/01/16 22:58:22;;;;;;;0.90;0.83;;;3.70;68.40;;;;;;5090757;28;20200;-91